Time;durP1;ratioP1;P1;durP2;ratioP2;P2;SDS_P1;SDS_P2;PMS_P1;PMS_P2;Temp;Humidity;BMP_temperature;BMP_pressure;BME280_temperature;BME280_humidity;BME280_pressure;Samples;Min_cycle;Max_cycle;Signal;HPM_P1;HPM_P2
2022/05/22 00:02:13;;;;;;;;;;;;;;;13.81;60.39;101039.13;5028846;28;20291;-19
2022/05/22 00:04:38;;;;;;;;;;;;;;;13.80;60.67;101047.09;5026679;28;19921;-19
2022/05/22 00:07:05;;;;;;;;;;;;;;;13.75;60.61;101039.25;5024742;28;19916;-19
2022/05/22 00:09:30;;;;;;;;;;;;;;;13.75;60.72;101038.34;5027228;28;20375;-19
2022/05/22 00:11:57;;;;;;;;;;;;;;;13.73;60.57;101038.38;5029833;28;19909;-19
2022/05/22 00:14:25;;;;;;;;;;;;;;;13.68;60.90;101035.84;5023357;28;19963;-19
2022/05/22 00:16:50;;;;;;;;;;;;;;;13.66;60.84;101032.31;5024249;28;19920;-19
2022/05/22 00:19:17;;;;;;;;;;;;;;;13.64;61.00;101034.09;5026511;28;19914;-20
2022/05/22 00:21:42;;;;;;;;;;;;;;;13.59;61.01;101028.91;5028404;28;19952;-19
2022/05/22 00:24:08;;;;;;;;;;;;;;;13.54;61.06;101035.16;5023599;28;19924;-19
2022/05/22 00:26:33;;;;;;;;;;;;;;;13.51;61.25;101038.75;5027352;28;19963;-20
2022/05/22 00:28:59;;;;;;;;;;;;;;;13.47;61.11;101035.22;5025547;28;19912;-19
2022/05/22 00:31:24;;;;;;;;;;;;;;;13.45;61.16;101026.44;5024834;28;19914;-19
2022/05/22 00:33:49;;;;;;;;;;;;;;;13.41;61.21;101026.50;5023848;28;20272;-20
2022/05/22 00:36:14;;;;;;;;;;;;;;;13.38;61.45;101024.78;5024966;28;20276;-20
2022/05/22 00:38:40;;;;;;;;;;;;;;;13.36;61.44;101021.25;5027998;28;19912;-19
2022/05/22 00:41:06;;;;;;;;;;;;;;;13.32;61.38;101014.25;5027662;28;19991;-20
2022/05/22 00:43:33;;;;;;;;;;;;;;;13.31;61.41;101012.53;5027492;28;19912;-19
2022/05/22 00:45:58;;;;;;;;;;;;;;;13.28;61.49;101024.03;5024310;28;19913;-20
2022/05/22 00:48:24;;;;;;;;;;;;;;;13.26;61.64;101017.00;5026419;28;19991;-19
2022/05/22 00:50:49;;;;;;;;;;;;;;;13.23;61.51;101020.56;5027754;28;19966;-19
2022/05/22 00:53:15;;;;;;;;;;;;;;;13.20;61.77;101026.78;5027875;28;19916;-19
2022/05/22 00:55:40;;;;;;;;;;;;;;;13.17;61.69;101018.88;5026703;28;20135;-19
2022/05/22 00:58:07;;;;;;;;;;;;;;;13.13;61.95;101017.19;5026168;28;19916;-20
2022/05/22 01:00:33;;;;;;;;;;;;;;;13.14;61.42;101015.41;5023297;28;19914;-20
2022/05/22 01:05:43;;;;;;;;;;;;;;;13.04;62.12;101017.31;5025327;28;19926;-20
2022/05/22 01:08:09;;;;;;;;;;;;;;;13.03;61.88;101021.72;5024913;28;19913;-19
2022/05/22 01:10:35;;;;;;;;;;;;;;;12.99;62.04;101021.78;5025489;28;19921;-20
2022/05/22 01:13:00;;;;;;;;;;;;;;;12.96;62.11;101020.94;5023431;28;19943;-19
2022/05/22 01:15:25;;;;;;;;;;;;;;;12.93;62.13;101028.91;5008917;28;19913;-20
2022/05/22 01:17:50;;;;;;;;;;;;;;;12.89;61.97;101027.22;5019770;28;19921;-20
2022/05/22 01:20:16;;;;;;;;;;;;;;;12.86;62.07;101032.53;5025710;28;19912;-20
2022/05/22 01:22:42;;;;;;;;;;;;;;;12.83;62.24;101033.47;5028339;28;19916;-20
2022/05/22 01:25:07;;;;;;;;;;;;;;;12.81;62.20;101044.97;5026730;28;21651;-19
2022/05/22 01:27:33;;;;;;;;;;;;;;;12.76;62.21;101041.50;5008268;28;20164;-20
2022/05/22 01:30:05;;;;;;;;;;;;;;;12.74;62.09;101043.28;5023751;28;20338;-19
2022/05/22 01:32:32;;;;;;;;;;;;;;;12.73;62.17;101046.84;5037013;28;19920;-19
2022/05/22 01:34:57;;;;;;;;;;;;;;;12.69;62.31;101043.34;5025919;28;19920;-19
2022/05/22 01:37:22;;;;;;;;;;;;;;;12.68;62.25;101046.88;5024883;28;19913;-19
2022/05/22 01:39:48;;;;;;;;;;;;;;;12.66;62.27;101051.31;5026001;28;19913;-20
2022/05/22 01:42:13;;;;;;;;;;;;;;;12.61;62.18;101048.75;5025471;28;19913;-19
2022/05/22 01:44:38;;;;;;;;;;;;;;;12.57;62.28;101049.63;5022917;28;20523;-19
2022/05/22 01:47:04;;;;;;;;;;;;;;;12.52;62.51;101047.06;5026643;28;19913;-20
2022/05/22 01:49:29;;;;;;;;;;;;;;;12.52;62.15;101048.81;5026164;28;19920;-19
2022/05/22 01:51:54;;;;;;;;;;;;;;;12.48;61.97;101042.72;5030242;28;19924;-19
2022/05/22 01:54:19;;;;;;;;;;;;;;;12.43;62.43;101042.75;5028299;28;19920;-19
2022/05/22 01:56:44;;;;;;;;;;;;;;;12.41;62.31;101039.22;5026467;28;19913;-19
2022/05/22 01:59:10;;;;;;;;;;;;;;;12.38;62.07;101048.97;5030336;28;19913;-19
2022/05/22 02:01:35;;;;;;;;;;;;;;;12.34;62.05;101044.63;5028038;28;19971;-19
2022/05/22 02:04:00;;;;;;;;;;;;;;;12.31;62.32;101051.69;5026404;28;19920;-20
2022/05/22 02:06:25;;;;;;;;;;;;;;;12.28;62.53;101043.78;5027562;28;19967;-20
2022/05/22 02:08:50;;;;;;;;;;;;;;;12.25;62.21;101050.88;5027043;28;19966;-20
2022/05/22 02:11:16;;;;;;;;;;;;;;;12.23;62.43;101047.34;5028172;28;20435;-20
2022/05/22 02:13:43;;;;;;;;;;;;;;;12.19;62.52;101041.22;5027181;28;20039;-20
2022/05/22 02:16:08;;;;;;;;;;;;;;;12.16;62.65;101041.25;5029053;28;20015;-19
2022/05/22 02:18:34;;;;;;;;;;;;;;;12.14;62.67;101030.69;5026132;28;20365;-19
2022/05/22 02:20:59;;;;;;;;;;;;;;;12.09;62.42;101026.34;5025722;28;20728;-20
2022/05/22 02:23:24;;;;;;;;;;;;;;;12.06;62.30;101030.78;5030164;28;20265;-19
2022/05/22 02:25:50;;;;;;;;;;;;;;;12.06;62.45;101032.53;5028794;28;20007;-20
2022/05/22 02:28:17;;;;;;;;;;;;;;;12.02;62.13;101033.44;5032127;28;19920;-19
2022/05/22 02:30:44;;;;;;;;;;;;;;;12.01;62.26;101036.97;5029165;28;19999;-20
2022/05/22 02:33:10;;;;;;;;;;;;;;;11.96;62.59;101033.47;5026098;28;19970;-19
2022/05/22 02:35:35;;;;;;;;;;;;;;;11.92;62.74;101033.53;5026064;28;20303;-20
2022/05/22 02:38:00;;;;;;;;;;;;;;;11.88;62.45;101037.09;5028417;28;19921;-20
2022/05/22 02:40:27;;;;;;;;;;;;;;;11.88;62.46;101037.09;5025328;28;20332;-19
2022/05/22 02:42:52;;;;;;;;;;;;;;;11.84;62.64;101030.06;5022124;28;19916;-19
2022/05/22 02:45:19;;;;;;;;;;;;;;;11.82;62.42;101034.50;5025250;28;19917;-19
2022/05/22 02:47:44;;;;;;;;;;;;;;;11.77;62.54;101028.38;5025420;28;20321;-20
2022/05/22 02:50:10;;;;;;;;;;;;;;;11.75;62.75;101030.13;5025586;28;19921;-19
2022/05/22 02:52:35;;;;;;;;;;;;;;;11.71;62.60;101023.13;5028824;28;19924;-19
2022/05/22 02:55:01;;;;;;;;;;;;;;;11.66;62.57;101031.09;5028915;28;20429;-19
2022/05/22 02:57:26;;;;;;;;;;;;;;;11.61;62.78;101023.19;5030525;28;19927;-19
2022/05/22 02:59:52;;;;;;;;;;;;;;;11.59;62.56;101024.97;5031191;28;19909;-19
2022/05/22 03:02:17;;;;;;;;;;;;;;;11.54;62.75;101018.88;5028232;28;20285;-19
2022/05/22 03:04:42;;;;;;;;;;;;;;;11.49;62.79;101018.91;5029037;28;19983;-19
2022/05/22 03:07:08;;;;;;;;;;;;;;;11.51;62.72;101016.25;5025057;28;20311;-20
2022/05/22 03:09:35;;;;;;;;;;;;;;;11.45;62.34;101019.81;5028896;28;19913;-20
2022/05/22 03:12:07;;;;;;;;;;;;;;;11.41;62.78;101021.56;5028112;28;20608;-19
2022/05/22 03:14:32;;;;;;;;;;;;;;;11.37;62.83;101025.13;5026302;28;19920;-19
2022/05/22 03:16:58;;;;;;;;;;;;;;;11.34;63.12;101019.00;5028659;28;19917;-19
2022/05/22 03:19:23;;;;;;;;;;;;;;;11.34;62.73;101013.72;5027113;28;19913;-19
2022/05/22 03:21:48;;;;;;;;;;;;;;;11.32;63.04;101015.47;5028143;28;20352;-19
2022/05/22 03:24:14;;;;;;;;;;;;;;;11.32;62.70;101021.66;5025368;28;20226;-19
2022/05/22 03:26:39;;;;;;;;;;;;;;;11.30;63.28;101015.50;5026219;28;20164;-20
2022/05/22 03:29:04;;;;;;;;;;;;;;;11.29;62.59;101003.19;5029277;28;19912;-19
2022/05/22 03:31:30;;;;;;;;;;;;;;;11.27;62.75;101007.63;5026735;28;19928;-19
2022/05/22 03:33:55;;;;;;;;;;;;;;;11.26;63.07;101005.84;5026381;28;20388;-19
2022/05/22 03:36:20;;;;;;;;;;;;;;;11.24;63.14;101007.63;5028358;28;19915;-20
2022/05/22 03:38:45;;;;;;;;;;;;;;;11.21;63.42;101013.81;5023269;28;19928;-19
2022/05/22 03:41:11;;;;;;;;;;;;;;;11.20;63.11;101016.47;5023298;28;20353;-19
2022/05/22 03:43:36;;;;;;;;;;;;;;;11.19;63.18;101017.31;5023394;28;20435;-19
2022/05/22 03:46:01;;;;;;;;;;;;;;;11.16;62.89;101027.03;5029972;28;20376;-19
2022/05/22 03:48:26;;;;;;;;;;;;;;;11.15;62.96;101025.28;5028595;28;19928;-19
2022/05/22 03:50:52;;;;;;;;;;;;;;;11.16;63.19;101026.13;5030121;28;19931;-19
2022/05/22 03:53:17;;;;;;;;;;;;;;;11.12;63.42;101027.94;5027675;28;19955;-19
2022/05/22 03:55:42;;;;;;;;;;;;;;;11.10;63.54;101029.69;5023307;28;19913;-20
2022/05/22 03:58:08;;;;;;;;;;;;;;;11.07;63.29;101040.25;5024604;28;19928;-19
2022/05/22 04:00:33;;;;;;;;;;;;;;;11.06;63.59;101024.44;5029231;28;19913;-19
2022/05/22 04:02:58;;;;;;;;;;;;;;;11.08;63.34;101033.22;5025556;28;19917;-20
2022/05/22 04:05:24;;;;;;;;;;;;;;;11.06;63.37;101027.06;5026274;28;20323;-20
2022/05/22 04:07:49;;;;;;;;;;;;;;;11.04;63.20;101030.59;5025246;28;19920;-19
2022/05/22 04:10:15;;;;;;;;;;;;;;;11.04;63.68;101027.97;5025445;28;19927;-20
2022/05/22 04:12:42;;;;;;;;;;;;;;;11.04;63.24;101032.38;5023560;28;20444;-19
2022/05/22 04:15:10;;;;;;;;;;;;;;;11.04;63.63;101032.38;5025303;28;19948;-19
2022/05/22 04:17:36;;;;;;;;;;;;;;;11.05;63.47;101028.84;5024055;28;19925;-20
2022/05/22 04:20:01;;;;;;;;;;;;;;;11.03;63.48;101020.06;5025937;28;19913;-19
2022/05/22 04:22:26;;;;;;;;;;;;;;;11.04;63.80;101033.25;5027681;28;19920;-20
2022/05/22 04:27:42;;;;;;;;;;;;;;;11.06;63.61;101038.53;5027268;28;20415;-19
2022/05/22 04:30:08;;;;;;;;;;;;;;;11.08;63.89;101041.16;5026411;28;20284;-19
2022/05/22 04:32:33;;;;;;;;;;;;;;;11.13;63.96;101048.16;5025722;28;20460;-19
2022/05/22 04:34:58;;;;;;;;;;;;;;;11.22;63.67;101047.25;5026354;28;19999;-19
2022/05/22 04:37:23;;;;;;;;;;;;;;;11.23;64.03;101048.09;5027057;28;20012;-19
2022/05/22 04:39:49;;;;;;;;;;;;;;;11.24;63.76;101047.22;5026126;28;20011;-20
2022/05/22 04:42:14;;;;;;;;;;;;;;;11.35;63.87;101052.44;5010886;28;20000;-20
2022/05/22 04:44:39;;;;;;;;;;;;;;;11.37;64.02;101048.91;5026317;28;19920;-19
2022/05/22 04:47:05;;;;;;;;;;;;;;;11.40;64.25;101045.34;5025469;28;19915;-19
2022/05/22 04:49:30;;;;;;;;;;;;;;;11.40;64.06;101029.50;5027357;28;19944;-19
2022/05/22 04:51:58;;;;;;;;;;;;;;;11.46;64.33;101031.22;5024496;28;19960;-19
2022/05/22 04:54:24;;;;;;;;;;;;;;;11.49;64.23;101021.53;5019733;28;19917;-19
2022/05/22 04:56:49;;;;;;;;;;;;;;;11.54;64.04;101021.50;5026855;28;19923;-20
2022/05/22 04:59:14;;;;;;;;;;;;;;;11.56;64.45;101025.00;5023576;28;19956;-19
2022/05/22 05:01:39;;;;;;;;;;;;;;;11.60;64.22;101018.81;5027744;28;20313;-19
2022/05/22 05:04:04;;;;;;;;;;;;;;;11.63;64.25;101021.44;5024708;28;20338;-19
2022/05/22 05:06:30;;;;;;;;;;;;;;;11.67;64.53;101025.78;5027209;28;19913;-19
2022/05/22 05:08:55;;;;;;;;;;;;;;;11.74;64.35;101018.69;5023192;28;20349;-19
2022/05/22 05:11:20;;;;;;;;;;;;;;;11.80;64.49;101028.31;5027908;28;20003;-19
2022/05/22 05:13:46;;;;;;;;;;;;;;;11.86;64.54;101025.63;5026419;28;19936;-19
2022/05/22 05:16:12;;;;;;;;;;;;;;;11.91;64.65;101025.59;5023115;28;19963;-20
2022/05/22 05:18:38;;;;;;;;;;;;;;;11.97;64.38;101040.53;5028210;28;19975;-19
2022/05/22 05:21:05;;;;;;;;;;;;;;;12.04;64.86;101035.16;5023710;28;19919;-19
2022/05/22 05:23:30;;;;;;;;;;;;;;;12.11;64.87;101038.69;5029672;28;20339;-19
2022/05/22 05:25:55;;;;;;;;;;;;;;;12.17;64.59;101033.31;5030535;28;19944;-19
2022/05/22 05:28:21;;;;;;;;;;;;;;;12.25;64.70;101040.28;5031348;28;20419;-19
2022/05/22 05:30:46;;;;;;;;;;;;;;;12.30;64.50;101038.47;5025080;28;19914;-19
2022/05/22 05:33:11;;;;;;;;;;;;;;;12.33;64.82;101038.44;5030098;28;19923;-20
2022/05/22 05:35:36;;;;;;;;;;;;;;;12.39;64.59;101038.38;5026162;28;19920;-20
2022/05/22 05:38:01;;;;;;;;;;;;;;;12.43;64.79;101034.81;5030038;28;19917;-19
2022/05/22 05:40:27;;;;;;;;;;;;;;;12.48;64.69;101041.81;5028573;28;19962;-20
2022/05/22 05:42:52;;;;;;;;;;;;;;;12.52;64.86;101032.94;5026610;28;19913;-19
2022/05/22 05:45:18;;;;;;;;;;;;;;;12.58;64.91;101027.59;5027109;28;20339;-19
2022/05/22 05:47:44;;;;;;;;;;;;;;;12.63;65.13;101025.75;5027692;28;20384;-19
2022/05/22 05:50:10;;;;;;;;;;;;;;;12.71;65.52;101028.34;5030957;28;19928;-20
2022/05/22 05:52:35;;;;;;;;;;;;;;;12.78;65.82;101029.13;5027731;28;19920;-19
2022/05/22 05:55:00;;;;;;;;;;;;;;;12.84;65.06;101023.75;5024619;28;19919;-20
2022/05/22 05:57:26;;;;;;;;;;;;;;;12.90;65.41;101018.38;5028044;28;19978;-19
2022/05/22 05:59:57;;;;;;;;;;;;;;;12.95;65.23;101027.13;5026549;28;20347;-20
2022/05/22 06:02:22;;;;;;;;;;;;;;;13.02;65.85;101013.81;5028841;28;19909;-20
2022/05/22 06:04:47;;;;;;;;;;;;;;;13.07;65.58;101011.97;5022872;28;19924;-19
2022/05/22 06:07:12;;;;;;;;;;;;;;;13.16;65.70;101019.78;5028206;28;19959;-19
2022/05/22 06:09:38;;;;;;;;;;;;;;;13.22;65.66;101013.53;5030607;28;19955;-19
2022/05/22 06:12:03;;;;;;;;;;;;;;;13.29;65.93;101009.88;5024816;28;19948;-20
2022/05/22 06:14:30;;;;;;;;;;;;;;;13.35;66.17;101012.44;5028505;28;19925;-19
2022/05/22 06:16:55;;;;;;;;;;;;;;;13.43;65.76;101006.13;5026367;28;19917;-20
2022/05/22 06:19:53;;;;;;;;;;;;;;;13.51;65.36;101004.31;5025271;28;19921;-20
2022/05/22 06:22:06;;;;;;;;;;;;;;;13.60;65.65;101003.25;5025654;28;19917;-19
2022/05/22 06:24:33;;;;;;;;;;;;;;;13.67;65.39;101002.25;5021682;28;19967;-19
2022/05/22 06:26:58;;;;;;;;;;;;;;;13.72;65.34;100992.47;5023900;28;20404;-19
2022/05/22 06:29:23;;;;;;;;;;;;;;;13.81;65.21;100995.84;5028312;28;19952;-19
2022/05/22 06:31:49;;;;;;;;;;;;;;;13.89;65.11;100993.94;5024881;28;19980;-19
2022/05/22 06:34:15;;;;;;;;;;;;;;;13.96;64.96;100995.56;5028958;28;20320;-19
2022/05/22 06:36:40;;;;;;;;;;;;;;;14.04;64.70;100987.47;5023595;28;19924;-20
2022/05/22 06:42:11;;;;;;;;;;;;;;;14.21;64.76;100983.63;4988325;28;21196;-20
2022/05/22 06:44:36;;;;;;;;;;;;;;;14.28;64.06;100974.66;5017695;28;20383;-19
2022/05/22 06:47:03;;;;;;;;;;;;;;;14.36;63.82;100985.09;5026391;28;19909;-19
2022/05/22 06:49:28;;;;;;;;;;;;;;;14.46;64.06;100984.00;5026596;28;19920;-21
2022/05/22 06:51:56;;;;;;;;;;;;;;;14.58;64.04;100987.31;5029446;28;19971;-19
2022/05/22 06:54:21;;;;;;;;;;;;;;;14.66;63.42;100980.06;5029354;28;19920;-19
2022/05/22 06:56:47;;;;;;;;;;;;;;;14.75;63.44;100985.16;5028151;28;19920;-19
2022/05/22 06:59:12;;;;;;;;;;;;;;;14.85;63.62;100985.00;5028113;28;19920;-19
2022/05/22 07:01:38;;;;;;;;;;;;;;;14.95;63.15;100988.34;5028113;28;19909;-20
2022/05/22 07:04:03;;;;;;;;;;;;;;;15.03;63.21;100985.53;5028653;28;19923;-19
2022/05/22 07:06:28;;;;;;;;;;;;;;;15.14;63.39;100989.66;5027864;28;19913;-19
2022/05/22 07:08:54;;;;;;;;;;;;;;;15.29;63.81;100987.56;5029615;28;19959;-19
2022/05/22 07:14:03;;;;;;;;;;;;;;;15.42;62.79;100988.13;5022720;28;20395;-19
2022/05/22 07:16:28;;;;;;;;;;;;;;;15.53;62.54;100982.53;5025965;28;19920;-20
2022/05/22 07:18:53;;;;;;;;;;;;;;;15.63;62.62;100984.06;5023299;28;19921;-19
2022/05/22 07:21:18;;;;;;;;;;;;;;;15.74;62.59;100986.44;5025006;28;20978;-20
2022/05/22 07:23:44;;;;;;;;;;;;;;;15.88;63.11;100982.56;5027942;28;19917;-19
2022/05/22 07:26:09;;;;;;;;;;;;;;;16.10;63.47;100977.56;5027412;28;20415;-19
2022/05/22 07:28:34;;;;;;;;;;;;;;;16.20;62.82;100972.84;5026649;28;20453;-19
2022/05/22 07:30:59;;;;;;;;;;;;;;;16.27;62.27;100971.78;5023561;28;19935;-19
2022/05/22 07:33:24;;;;;;;;;;;;;;;16.37;63.21;100977.69;5024177;28;19917;-20
2022/05/22 07:35:56;;;;;;;;;;;;;;;16.45;62.18;100974.84;5023694;28;20490;-20
2022/05/22 07:38:22;;;;;;;;;;;;;;;16.56;61.78;100958.53;5026002;28;20051;-20
2022/05/22 07:40:47;;;;;;;;;;;;;;;16.63;61.94;100953.88;5023244;28;19999;-19
2022/05/22 07:43:12;;;;;;;;;;;;;;;16.75;62.30;100966.84;5022795;28;20139;-20
2022/05/22 07:45:37;;;;;;;;;;;;;;;16.89;61.85;100954.88;5024084;28;20020;-20
2022/05/22 07:48:03;;;;;;;;;;;;;;;17.03;62.09;100957.13;5025701;28;20017;-20
2022/05/22 07:50:29;;;;;;;;;;;;;;;17.13;61.17;100957.72;5027835;28;20266;-19
2022/05/22 07:52:55;;;;;;;;;;;;;;;17.25;61.50;100956.47;5026081;28;20004;-19
2022/05/22 07:55:21;;;;;;;;;;;;;;;17.34;61.13;100956.16;5021390;28;20413;-20
2022/05/22 07:57:46;;;;;;;;;;;;;;;17.52;61.50;100951.13;5027724;28;19920;-20
2022/05/22 08:00:13;;;;;;;;;;;;;;;17.71;61.21;100951.38;5024651;28;19921;-20
2022/05/22 08:02:38;;;;;;;;;;;;;;;17.87;60.55;100956.19;5027407;28;20019;-20
2022/05/22 08:05:04;;;;;;;;;;;;;;;17.97;60.24;100952.25;5025072;28;20012;-19
2022/05/22 08:07:30;;;;;;;;;;;;;;;18.15;61.79;100945.41;5028187;28;19913;-19
2022/05/22 08:09:55;;;;;;;;;;;;;;;18.28;61.51;100937.81;5026443;28;19931;-19
2022/05/22 08:12:21;;;;;;;;;;;;;;;18.34;59.65;100942.94;5023580;28;19921;-19
2022/05/22 08:14:46;;;;;;;;;;;;;;;18.38;59.14;100938.34;5026395;28;19921;-19
2022/05/22 08:17:11;;;;;;;;;;;;;;;18.44;60.06;100931.91;5021167;28;19966;-20
2022/05/22 08:19:36;;;;;;;;;;;;;;;18.61;59.95;100930.38;5023812;28;19921;-19
2022/05/22 08:22:02;;;;;;;;;;;;;;;18.74;60.72;100925.44;5024625;28;20055;-20
2022/05/22 08:24:27;;;;;;;;;;;;;;;18.85;58.77;100916.03;5024821;28;19967;-19
2022/05/22 08:26:52;;;;;;;;;;;;;;;18.96;58.42;100928.09;5026099;28;19921;-19
2022/05/22 08:29:18;;;;;;;;;;;;;;;19.02;58.81;100922.53;5027413;28;19913;-19
2022/05/22 08:31:43;;;;;;;;;;;;;;;19.10;57.62;100927.56;5030745;28;19919;-19
2022/05/22 08:34:09;;;;;;;;;;;;;;;19.17;57.81;100930.88;5031441;28;19916;-19
2022/05/22 08:36:34;;;;;;;;;;;;;;;19.25;58.33;100939.44;5028903;28;19917;-19
2022/05/22 08:38:59;;;;;;;;;;;;;;;19.39;58.18;100940.66;5025196;28;20328;-20
2022/05/22 08:41:29;;;;;;;;;;;;;;;19.53;57.83;100943.63;5023467;28;19943;-19
2022/05/22 08:44:08;;;;;;;;;;;;;;;19.67;57.53;100939.50;5025887;28;19913;-19
2022/05/22 08:46:43;;;;;;;;;;;;;;;19.77;57.53;100945.31;5027508;28;19924;-19
2022/05/22 08:49:15;;;;;;;;;;;;;;;19.98;58.42;100943.50;5025521;28;19917;-19
2022/05/22 08:51:40;;;;;;;;;;;;;;;20.15;57.96;100939.22;5027306;28;19916;-19
2022/05/22 08:54:22;;;;;;;;;;;;;;;20.24;57.62;100936.16;5026087;28;20395;-19
2022/05/22 08:59:34;;;;;;;;;;;;;;;20.37;56.53;100933.75;5026951;28;19924;-19
2022/05/22 09:02:06;;;;;;;;;;;;;;;20.41;55.38;100937.16;5024705;28;19975;-19
2022/05/22 09:04:31;;;;;;;;;;;;;;;20.41;55.81;100923.78;5019770;28;19925;-19
2022/05/22 09:07:02;;;;;;;;;;;;;;;20.44;55.51;100931.66;5023456;28;19928;-19
2022/05/22 09:09:28;;;;;;;;;;;;;;;20.49;56.34;100917.13;5024596;28;19928;-19
2022/05/22 09:12:12;;;;;;;;;;;;;;;20.64;56.38;100912.84;5008968;28;20008;-20
2022/05/22 09:14:37;;;;;;;;;;;;;;;20.84;55.74;100913.69;5028703;28;19960;-19
2022/05/22 09:17:09;;;;;;;;;;;;;;;20.89;54.59;100922.41;5028447;28;19956;-19
2022/05/22 09:19:45;;;;;;;;;;;;;;;20.94;54.03;100915.97;5028197;28;19913;-19
2022/05/22 09:22:17;;;;;;;;;;;;;;;20.96;53.79;100917.59;5028467;28;19967;-20
2022/05/22 09:24:45;;;;;;;;;;;;;;;20.96;53.74;100904.22;5028670;28;20395;-19
2022/05/22 09:27:11;;;;;;;;;;;;;;;20.97;53.87;100911.28;5028483;28;19952;-19
2022/05/22 09:29:55;;;;;;;;;;;;;;;20.97;53.19;100907.78;5026427;28;19909;-19
2022/05/22 09:32:20;;;;;;;;;;;;;;;20.95;53.29;100910.53;5026386;28;19913;-19
2022/05/22 09:34:45;;;;;;;;;;;;;;;20.94;53.71;100905.22;5028507;28;19915;-19
2022/05/22 09:37:22;;;;;;;;;;;;;;;21.00;54.24;100902.22;5028582;28;20008;-19
2022/05/22 09:39:54;;;;;;;;;;;;;;;21.01;52.92;100901.31;5026514;28;19924;-20
2022/05/22 09:42:38;;;;;;;;;;;;;;;21.05;53.28;100899.31;5028047;28;19991;-20
2022/05/22 09:45:22;;;;;;;;;;;;;;;21.17;53.87;100887.13;5027949;28;19960;-20
2022/05/22 09:48:07;;;;;;;;;;;;;;;21.25;53.00;100895.66;5023768;28;19920;-19
2022/05/22 09:50:46;;;;;;;;;;;;;;;21.38;53.51;100891.38;5027047;28;19916;-20
2022/05/22 09:53:24;;;;;;;;;;;;;;;21.54;54.77;100890.56;5002545;28;20304;-19
2022/05/22 09:55:52;;;;;;;;;;;;;;;21.71;52.93;100883.47;5026929;28;20335;-19
2022/05/22 09:58:35;;;;;;;;;;;;;;;21.71;52.87;100883.47;5028670;28;19909;-19
2022/05/22 10:01:10;;;;;;;;;;;;;;;21.72;53.19;100893.25;5041887;28;19912;-19
2022/05/22 10:03:44;;;;;;;;;;;;;;;21.79;52.30;100895.59;5027799;28;19909;-19
2022/05/22 10:06:09;;;;;;;;;;;;;;;21.81;51.83;100890.13;5028479;28;19917;-19
2022/05/22 10:08:46;;;;;;;;;;;;;;;21.78;51.82;100892.97;5028755;28;20058;-19
2022/05/22 10:11:24;;;;;;;;;;;;;;;21.82;51.57;100885.63;5030887;28;20384;-19
2022/05/22 10:14:03;;;;;;;;;;;;;;;21.83;51.63;100885.53;5028498;28;20296;-19
2022/05/22 10:16:31;;;;;;;;;;;;;;;21.87;52.06;100888.94;5031502;28;20016;-19
2022/05/22 10:19:00;;;;;;;;;;;;;;;21.89;51.53;100890.59;5031203;28;19924;-19
2022/05/22 10:21:29;;;;;;;;;;;;;;;21.94;52.92;100884.09;5029999;28;19913;-19
2022/05/22 10:23:54;;;;;;;;;;;;;;;22.00;51.02;100878.38;5033302;28;20352;-20
2022/05/22 10:26:28;;;;;;;;;;;;;;;22.05;51.27;100881.69;5029725;28;19920;-19
2022/05/22 10:28:57;;;;;;;;;;;;;;;22.12;51.59;100858.94;5030144;28;19966;-19
2022/05/22 10:31:33;;;;;;;;;;;;;;;22.19;52.35;100862.13;5027958;28;20430;-19
2022/05/22 10:34:04;;;;;;;;;;;;;;;22.28;51.16;100863.44;5028850;28;19909;-19
2022/05/22 10:36:34;;;;;;;;;;;;;;;22.30;51.03;100856.16;5028784;28;19909;-19
2022/05/22 10:39:07;;;;;;;;;;;;;;;22.42;52.42;100860.88;5030837;28;19939;-19
2022/05/22 10:44:18;;;;;;;;;;;;;;;22.72;51.79;100861.03;5028315;28;20008;-19
2022/05/22 10:46:50;;;;;;;;;;;;;;;22.70;51.09;100857.59;5030031;28;20367;-19
2022/05/22 10:49:16;;;;;;;;;;;;;;;22.69;50.39;100854.03;5028168;28;20436;-19
2022/05/22 10:51:52;;;;;;;;;;;;;;;22.75;50.42;100853.69;5027825;28;20272;-19
2022/05/22 10:54:21;;;;;;;;;;;;;;;22.78;50.21;100852.63;5028311;28;20003;-19
2022/05/22 10:56:47;;;;;;;;;;;;;;;22.81;49.98;100849.78;5031435;28;20391;-19
2022/05/22 10:59:19;;;;;;;;;;;;;;;22.97;50.64;100848.88;5030091;28;19909;-19
2022/05/22 11:01:44;;;;;;;;;;;;;;;23.14;49.96;100848.72;5030949;28;19913;-19
2022/05/22 11:04:11;;;;;;;;;;;;;;;23.18;49.36;100842.19;5024422;28;19916;-19
2022/05/22 11:06:38;;;;;;;;;;;;;;;23.26;48.54;100843.56;5031453;28;20339;-19
2022/05/22 11:09:03;;;;;;;;;;;;;;;23.36;49.42;100839.38;5026096;28;19917;-19
2022/05/22 11:11:30;;;;;;;;;;;;;;;23.51;48.82;100828.66;5027232;28;19920;-19
2022/05/22 11:14:05;;;;;;;;;;;;;;;23.64;48.86;100832.31;5030152;28;20299;-19
2022/05/22 11:16:30;;;;;;;;;;;;;;;23.59;48.60;100839.81;5030565;28;19913;-19
2022/05/22 11:19:06;;;;;;;;;;;;;;;23.56;48.45;100830.09;5029932;28;20031;-19
2022/05/22 11:21:33;;;;;;;;;;;;;;;23.62;48.44;100825.28;5029435;28;20034;-19
2022/05/22 11:24:01;;;;;;;;;;;;;;;23.69;48.37;100830.22;5028965;28;20435;-19
2022/05/22 11:26:29;;;;;;;;;;;;;;;23.74;47.63;100824.50;5030767;28;19920;-20
2022/05/22 11:29:17;;;;;;;;;;;;;;;23.76;47.35;100827.13;5030933;28;19924;-19
2022/05/22 11:32:03;;;;;;;;;;;;;;;23.80;47.69;100828.66;5026959;28;19910;-19
2022/05/22 11:34:28;;;;;;;;;;;;;;;23.76;47.26;100816.34;5037088;28;19932;-19
2022/05/22 11:37:04;;;;;;;;;;;;;;;23.71;47.06;100824.72;5030449;28;19913;-19
2022/05/22 11:39:48;;;;;;;;;;;;;;;23.68;47.09;100824.91;5030336;28;20388;-19
2022/05/22 11:42:18;;;;;;;;;;;;;;;23.64;47.30;100826.91;5027835;28;19916;-20
2022/05/22 11:45:02;;;;;;;;;;;;;;;23.61;47.40;100819.03;5027672;28;19913;-19
2022/05/22 11:48:06;;;;;;;;;;;;;;;23.63;47.23;100810.84;5025787;28;19909;-19
2022/05/22 11:50:54;;;;;;;;;;;;;;;23.68;47.46;100816.84;4982373;28;19925;-19
2022/05/22 11:53:22;;;;;;;;;;;;;;;23.75;47.17;100811.94;4950993;28;19920;-19
2022/05/22 11:55:59;;;;;;;;;;;;;;;23.78;46.53;100793.75;5013286;28;19909;-20
2022/05/22 11:58:34;;;;;;;;;;;;;;;23.86;46.96;100798.66;5029082;28;19909;-19
2022/05/22 12:01:03;;;;;;;;;;;;;;;23.93;47.17;100788.34;5026110;28;19913;-19
2022/05/22 12:03:47;;;;;;;;;;;;;;;24.00;47.27;100792.38;5030102;28;20380;-19
2022/05/22 12:06:37;;;;;;;;;;;;;;;24.11;47.63;100791.72;5029776;28;20641;-19
2022/05/22 12:09:05;;;;;;;;;;;;;;;24.19;47.05;100786.72;5039228;28;20372;-20
2022/05/22 12:11:41;;;;;;;;;;;;;;;24.25;46.92;100785.44;5029714;28;20058;-20
2022/05/22 12:14:09;;;;;;;;;;;;;;;24.38;47.23;100780.13;5028446;28;19959;-20
2022/05/22 12:16:41;;;;;;;;;;;;;;;24.44;47.25;100789.63;5027394;28;19917;-19
2022/05/22 12:19:13;;;;;;;;;;;;;;;24.45;46.91;100781.41;5011250;28;19916;-19
2022/05/22 12:22:02;;;;;;;;;;;;;;;24.53;46.62;100782.72;5023706;28;19909;-20
2022/05/22 12:24:30;;;;;;;;;;;;;;;24.53;45.94;100780.03;5030095;28;19932;-19
2022/05/22 12:26:55;;;;;;;;;;;;;;;24.53;46.02;100788.13;5027355;28;19913;-19
2022/05/22 12:29:25;;;;;;;;;;;;;;;24.50;46.06;100777.56;5019736;28;19919;-19
2022/05/22 12:31:55;;;;;;;;;;;;;;;24.46;45.86;100771.50;5027141;28;19944;-20
2022/05/22 12:34:25;;;;;;;;;;;;;;;24.38;45.09;100774.72;5027826;28;19917;-19
2022/05/22 12:36:51;;;;;;;;;;;;;;;24.34;45.75;100776.75;5023443;28;20007;-19
2022/05/22 12:39:17;;;;;;;;;;;;;;;24.30;45.57;100782.44;5029643;28;20346;-19
2022/05/22 12:41:52;;;;;;;;;;;;;;;24.26;45.73;100786.28;5027481;28;19916;-20
2022/05/22 12:44:17;;;;;;;;;;;;;;;24.20;45.89;100779.47;5027576;28;20391;-19
2022/05/22 12:46:42;;;;;;;;;;;;;;;24.14;45.79;100783.44;5025603;28;19913;-20
2022/05/22 12:49:10;;;;;;;;;;;;;;;24.12;45.87;100782.69;5027740;28;20008;-20
2022/05/22 12:51:39;;;;;;;;;;;;;;;24.10;45.76;100771.09;5028783;28;20411;-19
2022/05/22 12:54:21;;;;;;;;;;;;;;;24.13;45.92;100776.31;5028961;28;19967;-19
2022/05/22 12:56:47;;;;;;;;;;;;;;;24.10;45.81;100765.72;5024551;28;19909;-20